Time;durP1;ratioP1;P1;durP2;ratioP2;P2;SDS_P1;SDS_P2;PMS_P1;PMS_P2;Temp;Humidity;BMP_temperature;BMP_pressure;BME280_temperature;BME280_humidity;BME280_pressure;Samples;Min_cycle;Max_cycle;Signal;HPM_P1;HPM_P2
2023/12/31 00:01:15;;;;;;;19.20;10.07;;;3.60;99.90;;;;;;4972206;28;20039;-73
2023/12/31 00:03:41;;;;;;;19.52;9.48;;;3.60;99.90;;;;;;4961322;28;20027;-72
2023/12/31 00:06:06;;;;;;;14.35;7.85;;;3.60;99.90;;;;;;4965422;28;20361;-71
2023/12/31 00:08:32;;;;;;;18.58;8.43;;;3.50;99.90;;;;;;4968219;28;20035;-73
2023/12/31 00:11:00;;;;;;;13.50;7.88;;;3.50;99.90;;;;;;4954889;28;20061;-74
2023/12/31 00:13:26;;;;;;;16.52;7.82;;;3.40;99.90;;;;;;4961219;28;20166;-71
2023/12/31 00:15:51;;;;;;;10.75;5.90;;;3.30;99.90;;;;;;4971689;28;20567;-73
2023/12/31 00:18:17;;;;;;;11.93;6.28;;;3.30;99.90;;;;;;4961755;28;20039;-73
2023/12/31 00:20:43;;;;;;;11.20;5.28;;;3.30;99.90;;;;;;4965951;28;20031;-71
2023/12/31 00:23:11;;;;;;;11.98;6.07;;;3.20;99.90;;;;;;4963041;28;20063;-72
2023/12/31 00:25:37;;;;;;;10.80;5.75;;;3.20;99.90;;;;;;4960339;28;20112;-69
2023/12/31 00:28:03;;;;;;;9.32;5.65;;;3.20;99.90;;;;;;4968246;28;20464;-72
2023/12/31 00:30:29;;;;;;;8.85;5.43;;;3.10;99.90;;;;;;4959006;28;20023;-72
2023/12/31 00:32:54;;;;;;;9.35;5.45;;;3.10;99.90;;;;;;4963204;28;20385;-71
2023/12/31 00:35:20;;;;;;;9.25;5.35;;;3.00;99.90;;;;;;4971423;28;20061;-72
2023/12/31 00:37:46;;;;;;;12.00;5.97;;;3.00;99.90;;;;;;4960304;28;20117;-71
2023/12/31 00:40:12;;;;;;;10.43;5.50;;;3.00;99.90;;;;;;4955288;28;20380;-70
2023/12/31 00:42:39;;;;;;;12.18;5.78;;;2.90;99.90;;;;;;4967583;28;20105;-72
2023/12/31 00:45:05;;;;;;;8.77;5.68;;;2.90;99.90;;;;;;4973992;28;20018;-71
2023/12/31 00:47:31;;;;;;;10.70;6.10;;;2.80;99.90;;;;;;4963051;28;20034;-72
2023/12/31 00:49:58;;;;;;;13.27;6.22;;;2.80;99.90;;;;;;4963503;28;20109;-71
2023/12/31 00:52:23;;;;;;;12.10;6.50;;;2.80;99.90;;;;;;4969199;28;20117;-72
2023/12/31 00:54:50;;;;;;;10.25;6.20;;;2.80;99.90;;;;;;4964750;28;20110;-74
2023/12/31 00:57:16;;;;;;;11.77;5.60;;;2.80;99.90;;;;;;4961793;28;20361;-70
2023/12/31 00:59:42;;;;;;;12.43;5.88;;;2.70;99.90;;;;;;4962496;28;20039;-70
2023/12/31 01:02:08;;;;;;;19.65;7.47;;;2.70;99.90;;;;;;4967709;28;20058;-72
2023/12/31 01:04:35;;;;;;;14.13;7.05;;;2.70;99.90;;;;;;4959056;28;20427;-70
2023/12/31 01:07:00;;;;;;;13.32;6.18;;;2.70;99.90;;;;;;4964058;28;20097;-70
2023/12/31 01:09:26;;;;;;;9.30;4.95;;;2.70;99.90;;;;;;4964259;28;20031;-70
2023/12/31 01:11:51;;;;;;;8.38;5.10;;;2.70;99.90;;;;;;4960636;28;20019;-70
2023/12/31 01:14:17;;;;;;;8.10;5.22;;;2.70;99.90;;;;;;4966819;28;20069;-70
2023/12/31 01:16:43;;;;;;;7.10;4.63;;;2.70;99.90;;;;;;4962611;28;20073;-70
2023/12/31 01:19:08;;;;;;;9.57;5.88;;;2.60;99.90;;;;;;4962189;28;20035;-70
2023/12/31 01:21:34;;;;;;;10.57;5.00;;;2.60;99.90;;;;;;4960762;28;20031;-71
2023/12/31 01:24:00;;;;;;;8.95;5.85;;;2.60;99.90;;;;;;4965722;28;20504;-70
2023/12/31 01:26:25;;;;;;;9.07;5.55;;;2.60;99.90;;;;;;4966731;28;20038;-70
2023/12/31 01:28:51;;;;;;;9.15;5.55;;;2.60;99.90;;;;;;4962854;28;20049;-70
2023/12/31 01:31:20;;;;;;;11.50;6.72;;;2.50;99.90;;;;;;4965436;28;20416;-71
2023/12/31 01:33:46;;;;;;;9.48;5.35;;;2.50;99.90;;;;;;4964628;28;20034;-70
2023/12/31 01:36:20;;;;;;;10.20;6.35;;;2.50;99.90;;;;;;4965326;28;20027;-71
2023/12/31 01:38:46;;;;;;;9.40;6.00;;;2.60;99.90;;;;;;4963300;28;20030;-70
2023/12/31 01:41:11;;;;;;;10.32;5.93;;;2.60;99.90;;;;;;4961774;28;20383;-70
2023/12/31 01:43:37;;;;;;;10.40;6.45;;;2.60;99.90;;;;;;4965252;28;20042;-70
2023/12/31 01:46:05;;;;;;;10.38;6.40;;;2.60;99.90;;;;;;4960188;28;20027;-70
2023/12/31 01:48:31;;;;;;;9.73;5.90;;;2.60;99.90;;;;;;4965717;28;20037;-70
2023/12/31 01:50:57;;;;;;;9.82;6.18;;;2.70;99.90;;;;;;4962396;28;20026;-70
2023/12/31 01:53:23;;;;;;;10.85;6.25;;;2.70;99.90;;;;;;4960098;28;20027;-70
2023/12/31 01:55:50;;;;;;;12.20;6.50;;;2.70;99.90;;;;;;4962765;28;20106;-70
2023/12/31 01:58:16;;;;;;;12.55;6.93;;;2.70;99.90;;;;;;4970953;28;20031;-71
2023/12/31 02:00:42;;;;;;;10.77;6.38;;;2.60;99.90;;;;;;4971903;28;20034;-70
2023/12/31 02:03:08;;;;;;;10.27;6.50;;;2.60;99.90;;;;;;4973238;28;20038;-71
2023/12/31 02:05:35;;;;;;;10.15;6.40;;;2.60;99.90;;;;;;4975902;28;20022;-71
2023/12/31 02:08:01;;;;;;;9.18;6.03;;;2.50;99.90;;;;;;4970435;28;20061;-71
2023/12/31 02:10:27;;;;;;;10.20;6.25;;;2.50;99.90;;;;;;4971610;28;20110;-71
2023/12/31 02:12:53;;;;;;;10.48;6.15;;;2.50;99.90;;;;;;4973582;28;20061;-71
2023/12/31 02:15:32;;;;;;;9.68;5.85;;;2.50;99.90;;;;;;4967259;28;20032;-71
2023/12/31 02:18:02;;;;;;;10.10;5.85;;;2.60;99.90;;;;;;4974547;28;20102;-71
2023/12/31 02:20:31;;;;;;;10.40;6.38;;;2.60;99.90;;;;;;4973629;28;20027;-71
2023/12/31 02:22:59;;;;;;;10.23;6.25;;;2.60;99.90;;;;;;4971307;28;20085;-71
2023/12/31 02:25:28;;;;;;;11.63;5.82;;;2.60;99.90;;;;;;4962907;28;20019;-70
2023/12/31 02:27:54;;;;;;;10.02;6.30;;;2.60;99.90;;;;;;4961884;28;20039;-71
2023/12/31 02:30:20;;;;;;;10.25;6.50;;;2.50;99.90;;;;;;4968921;28;20037;-71
2023/12/31 02:32:46;;;;;;;9.85;6.35;;;2.50;99.90;;;;;;4966632;28;20385;-70
2023/12/31 02:35:12;;;;;;;16.20;6.65;;;2.50;99.90;;;;;;4956487;28;20020;-70
2023/12/31 02:37:37;;;;;;;9.65;6.18;;;2.50;99.90;;;;;;4965657;28;20122;-70
2023/12/31 02:40:04;;;;;;;8.63;6.15;;;2.40;99.90;;;;;;4964114;28;20466;-70
2023/12/31 02:42:30;;;;;;;9.73;6.10;;;2.30;99.90;;;;;;4961228;28;20405;-70
2023/12/31 02:44:56;;;;;;;12.30;6.55;;;2.30;99.90;;;;;;4962134;28;20027;-71
2023/12/31 02:47:22;;;;;;;13.98;7.00;;;2.30;99.90;;;;;;4963682;28;20027;-70
2023/12/31 02:49:47;;;;;;;11.05;6.10;;;2.30;99.90;;;;;;4965580;28;20031;-69
2023/12/31 02:52:15;;;;;;;11.02;5.88;;;2.40;99.90;;;;;;4960663;28;20032;-70
2023/12/31 02:54:41;;;;;;;10.25;5.78;;;2.40;99.90;;;;;;4963167;28;20058;-70
2023/12/31 02:57:09;;;;;;;8.93;6.22;;;2.50;99.90;;;;;;4958195;28;20039;-70
2023/12/31 02:59:35;;;;;;;10.93;6.72;;;2.60;99.90;;;;;;4986633;28;20022;-70
2023/12/31 03:02:01;;;;;;;10.52;6.15;;;2.70;99.90;;;;;;4982714;28;20050;-70
2023/12/31 03:04:26;;;;;;;13.70;7.05;;;2.80;99.90;;;;;;4964893;28;20110;-70
2023/12/31 03:06:52;;;;;;;9.63;5.93;;;2.90;99.90;;;;;;4962982;28;20114;-70
2023/12/31 03:09:19;;;;;;;12.85;7.00;;;2.90;99.90;;;;;;4969986;28;20038;-70
2023/12/31 03:11:45;;;;;;;15.07;7.68;;;3.00;99.90;;;;;;4958687;28;20113;-69
2023/12/31 03:14:12;;;;;;;11.25;6.95;;;3.00;99.90;;;;;;4966904;28;20107;-71
2023/12/31 03:16:46;;;;;;;13.43;7.53;;;3.10;99.90;;;;;;4963410;28;20069;-69
2023/12/31 03:19:15;;;;;;;9.02;5.78;;;3.20;99.90;;;;;;4971942;28;20026;-70
2023/12/31 03:21:41;;;;;;;10.48;6.65;;;3.30;99.90;;;;;;4970409;28;20027;-71
2023/12/31 03:24:08;;;;;;;9.63;6.43;;;3.60;99.90;;;;;;4957127;28;20025;-70
2023/12/31 03:26:34;;;;;;;10.38;5.93;;;3.60;99.90;;;;;;4969044;28;20022;-70
2023/12/31 03:29:01;;;;;;;12.25;6.93;;;3.90;99.90;;;;;;4960639;28;20063;-70
2023/12/31 03:31:27;;;;;;;10.68;5.75;;;4.00;99.90;;;;;;4961556;28;20035;-71
2023/12/31 03:33:52;;;;;;;8.40;5.78;;;4.10;99.90;;;;;;4957028;28;20031;-71
2023/12/31 03:36:18;;;;;;;8.95;5.68;;;4.20;99.90;;;;;;4969754;28;20027;-70
2023/12/31 03:38:44;;;;;;;7.82;5.60;;;4.20;99.90;;;;;;4958412;28;20110;-70
2023/12/31 03:41:09;;;;;;;11.68;6.63;;;4.30;99.90;;;;;;4963419;28;20055;-70
2023/12/31 03:43:35;;;;;;;9.70;5.75;;;4.60;99.90;;;;;;4966778;28;20030;-70
2023/12/31 03:46:00;;;;;;;12.63;6.45;;;4.70;99.90;;;;;;4971704;28;20130;-70
2023/12/31 03:48:26;;;;;;;10.52;6.40;;;4.70;99.90;;;;;;4961539;28;20095;-71
2023/12/31 03:50:52;;;;;;;9.60;6.00;;;4.70;99.90;;;;;;4962920;28;20023;-70
2023/12/31 03:53:18;;;;;;;14.20;5.88;;;4.50;99.90;;;;;;4972920;28;20146;-70
2023/12/31 03:55:43;;;;;;;9.13;5.93;;;4.50;99.90;;;;;;4974069;28;20109;-70
2023/12/31 03:58:09;;;;;;;11.90;6.75;;;4.40;99.90;;;;;;4962401;28;20023;-70
2023/12/31 04:00:35;;;;;;;10.15;5.93;;;4.40;99.90;;;;;;4972616;28;20453;-71
2023/12/31 04:03:01;;;;;;;10.57;6.22;;;4.50;99.90;;;;;;4962126;28;20045;-70
2023/12/31 04:05:27;;;;;;;9.57;6.20;;;4.50;99.90;;;;;;4969155;28;20033;-71
2023/12/31 04:07:52;;;;;;;9.85;6.30;;;4.60;99.90;;;;;;4956729;28;20110;-70
2023/12/31 04:10:18;;;;;;;10.18;6.13;;;4.60;99.90;;;;;;4968328;28;20082;-70
2023/12/31 04:12:44;;;;;;;8.15;5.40;;;4.60;99.90;;;;;;4956998;28;20043;-70
2023/12/31 04:15:09;;;;;;;11.02;6.10;;;4.60;99.90;;;;;;4971885;28;20106;-70
2023/12/31 04:17:35;;;;;;;9.73;5.75;;;4.60;99.90;;;;;;4972218;28;20086;-70
2023/12/31 04:20:01;;;;;;;9.02;5.72;;;4.60;99.90;;;;;;4973164;28;20031;-70
2023/12/31 04:22:27;;;;;;;11.40;6.88;;;4.50;99.90;;;;;;4979287;28;20023;-70
2023/12/31 04:24:52;;;;;;;12.13;6.28;;;4.40;99.90;;;;;;4968563;28;20023;-70
2023/12/31 04:27:19;;;;;;;9.77;6.25;;;4.40;99.90;;;;;;4972516;28;20114;-71
2023/12/31 04:29:45;;;;;;;13.15;6.40;;;4.30;99.90;;;;;;4961829;28;20030;-70
2023/12/31 04:32:11;;;;;;;10.40;6.30;;;4.40;99.90;;;;;;4962016;28;20019;-70
2023/12/31 04:34:37;;;;;;;13.38;6.80;;;4.40;99.90;;;;;;4969603;28;20042;-70
2023/12/31 04:37:02;;;;;;;9.48;6.28;;;4.30;99.90;;;;;;4962698;28;20114;-70
2023/12/31 04:39:28;;;;;;;11.20;6.88;;;4.30;99.90;;;;;;4962187;28;20575;-70
2023/12/31 04:41:54;;;;;;;12.02;7.57;;;4.30;99.90;;;;;;4960318;28;20027;-70
2023/12/31 04:44:20;;;;;;;12.25;6.88;;;4.30;99.90;;;;;;4973524;28;20077;-70
2023/12/31 04:46:46;;;;;;;12.35;7.15;;;4.40;99.90;;;;;;4964836;28;20027;-70
2023/12/31 04:49:15;;;;;;;13.25;7.40;;;4.40;99.90;;;;;;4963420;28;20170;-70
2023/12/31 04:51:41;;;;;;;13.90;7.07;;;4.30;99.90;;;;;;4967838;28;20042;-70
2023/12/31 04:54:07;;;;;;;11.85;7.13;;;4.30;99.90;;;;;;4968695;28;20019;-70
2023/12/31 04:56:33;;;;;;;10.52;6.72;;;4.30;99.90;;;;;;4958803;28;20082;-70
2023/12/31 04:59:00;;;;;;;12.02;6.20;;;4.20;99.90;;;;;;4964800;28;20656;-70
2023/12/31 05:01:31;;;;;;;10.55;6.55;;;4.20;99.90;;;;;;4973184;28;20033;-70
2023/12/31 05:03:57;;;;;;;10.73;6.75;;;4.20;99.90;;;;;;4958155;28;20027;-70
2023/12/31 05:06:23;;;;;;;10.00;6.47;;;4.20;99.90;;;;;;4961122;28;20027;-70
2023/12/31 05:08:49;;;;;;;10.73;5.97;;;4.20;99.90;;;;;;4971396;28;20114;-70
2023/12/31 05:11:14;;;;;;;10.35;6.05;;;4.20;99.90;;;;;;4972865;28;20086;-70
2023/12/31 05:13:41;;;;;;;9.88;5.78;;;4.10;99.90;;;;;;4962340;28;20121;-70
2023/12/31 05:16:09;;;;;;;10.18;6.40;;;4.10;99.90;;;;;;4967766;28;20047;-70
2023/12/31 05:18:34;;;;;;;9.02;6.10;;;4.10;99.90;;;;;;4972807;28;20039;-71
2023/12/31 05:21:01;;;;;;;11.05;6.57;;;4.00;99.90;;;;;;4971458;28;20045;-70
2023/12/31 05:23:27;;;;;;;10.32;6.13;;;3.90;99.90;;;;;;4957860;28;20035;-71
2023/12/31 05:25:53;;;;;;;10.30;6.20;;;3.80;99.90;;;;;;4964505;28;20085;-70
2023/12/31 05:28:19;;;;;;;12.32;6.20;;;3.80;99.90;;;;;;4967957;28;20384;-70
2023/12/31 05:30:45;;;;;;;10.90;5.63;;;3.70;99.90;;;;;;4957332;28;20042;-70
2023/12/31 05:33:11;;;;;;;12.18;6.45;;;3.70;99.90;;;;;;4960602;28;20054;-70
2023/12/31 05:35:36;;;;;;;9.48;5.85;;;3.70;99.90;;;;;;4973123;28;20035;-70
2023/12/31 05:38:02;;;;;;;7.45;4.75;;;3.70;99.90;;;;;;4956876;28;20034;-70
2023/12/31 05:40:28;;;;;;;8.98;5.20;;;3.70;99.90;;;;;;4959802;28;20481;-70
2023/12/31 05:42:53;;;;;;;6.03;4.03;;;3.70;99.90;;;;;;4957365;28;20046;-70
2023/12/31 05:45:19;;;;;;;6.65;4.25;;;3.60;99.90;;;;;;4973057;28;20045;-70
2023/12/31 05:47:48;;;;;;;5.60;3.58;;;3.60;99.90;;;;;;4943512;28;20035;-70
2023/12/31 05:50:14;;;;;;;6.05;3.88;;;3.60;99.90;;;;;;4953521;28;20032;-70
2023/12/31 05:52:40;;;;;;;6.68;4.45;;;3.60;99.90;;;;;;4970035;28;20050;-70
2023/12/31 05:55:06;;;;;;;9.88;4.80;;;3.60;99.90;;;;;;4961302;28;20468;-70
2023/12/31 05:57:31;;;;;;;6.90;4.50;;;3.60;99.90;;;;;;4961690;28;20046;-70
2023/12/31 05:59:59;;;;;;;8.13;5.03;;;3.60;99.90;;;;;;4959916;28;20023;-70
2023/12/31 06:02:24;;;;;;;4.10;2.75;;;3.60;99.90;;;;;;4961811;28;20058;-70
2023/12/31 06:04:50;;;;;;;7.15;4.18;;;3.60;99.90;;;;;;4964724;28;20089;-70
2023/12/31 06:07:16;;;;;;;5.68;3.83;;;3.60;99.90;;;;;;4963023;28;20046;-70
2023/12/31 06:09:42;;;;;;;3.97;2.97;;;3.70;99.90;;;;;;4963296;28;20035;-70
2023/12/31 06:12:08;;;;;;;7.63;3.95;;;3.70;99.90;;;;;;4962312;28;20027;-70
2023/12/31 06:14:33;;;;;;;6.40;3.53;;;3.70;99.90;;;;;;4961566;28;20035;-70
2023/12/31 06:16:59;;;;;;;5.57;3.95;;;3.60;99.90;;;;;;4967120;28;20150;-70
2023/12/31 06:19:25;;;;;;;9.80;4.32;;;3.70;99.90;;;;;;4971691;28;20054;-70
2023/12/31 06:21:52;;;;;;;4.95;3.53;;;3.60;99.90;;;;;;4959493;28;20022;-70
2023/12/31 06:24:17;;;;;;;7.78;3.92;;;3.60;99.90;;;;;;4959746;28;20039;-70
2023/12/31 06:26:43;;;;;;;8.13;4.07;;;3.70;99.90;;;;;;4969062;28;20039;-70
2023/12/31 06:29:09;;;;;;;6.05;3.67;;;3.80;99.90;;;;;;4961266;28;20033;-70
2023/12/31 06:31:35;;;;;;;3.95;3.10;;;3.80;99.90;;;;;;4961018;28;20064;-70
2023/12/31 06:34:00;;;;;;;4.70;3.05;;;3.90;99.90;;;;;;4962046;28;20052;-71
2023/12/31 06:36:26;;;;;;;7.07;3.38;;;4.00;99.90;;;;;;4966093;28;20449;-71
2023/12/31 06:38:51;;;;;;;7.63;3.78;;;4.10;99.90;;;;;;4954291;28;20042;-69
2023/12/31 06:41:21;;;;;;;6.88;3.72;;;4.10;99.90;;;;;;4959847;28;20031;-70
2023/12/31 06:43:47;;;;;;;4.97;3.35;;;4.10;99.90;;;;;;4964361;28;20031;-70
2023/12/31 06:46:13;;;;;;;9.05;4.15;;;4.10;99.90;;;;;;4968317;28;20042;-70
2023/12/31 06:48:38;;;;;;;9.20;4.97;;;4.10;99.90;;;;;;4964615;28;20035;-70
2023/12/31 06:51:05;;;;;;;9.57;4.82;;;4.20;99.90;;;;;;4967507;28;20034;-70
2023/12/31 06:53:33;;;;;;;5.03;2.80;;;4.20;99.90;;;;;;4970881;28;20118;-70
2023/12/31 06:56:05;;;;;;;5.40;2.92;;;4.30;99.90;;;;;;4958268;28;20023;-70
2023/12/31 06:58:31;;;;;;;4.70;3.05;;;4.40;99.90;;;;;;4971377;28;20046;-70
2023/12/31 07:00:57;;;;;;;4.57;3.05;;;4.50;99.90;;;;;;4969030;28;20026;-72
2023/12/31 07:03:22;;;;;;;4.55;2.83;;;4.60;99.90;;;;;;4959048;28;20563;-75
2023/12/31 07:05:48;;;;;;;4.60;2.85;;;4.60;99.90;;;;;;4962383;28;20106;-72
2023/12/31 07:08:14;;;;;;;3.72;2.55;;;4.70;99.90;;;;;;4972148;28;20126;-72
2023/12/31 07:10:40;;;;;;;4.15;2.53;;;4.60;99.90;;;;;;4967803;28;20031;-72
2023/12/31 07:13:05;;;;;;;5.13;3.10;;;4.60;99.90;;;;;;4959336;28;20042;-72
2023/12/31 07:15:31;;;;;;;4.97;2.80;;;4.70;99.90;;;;;;4963057;28;20041;-72
2023/12/31 07:17:57;;;;;;;6.00;2.90;;;4.70;99.90;;;;;;4970445;28;20023;-72
2023/12/31 07:20:22;;;;;;;6.32;3.08;;;4.80;99.90;;;;;;4970160;28;20361;-70
2023/12/31 07:22:48;;;;;;;6.07;3.40;;;4.80;99.90;;;;;;4964692;28;20038;-74
2023/12/31 07:25:14;;;;;;;4.88;3.00;;;4.90;99.90;;;;;;4963431;28;20057;-76
2023/12/31 07:27:39;;;;;;;6.50;3.03;;;4.90;99.90;;;;;;4973037;28;20039;-71
2023/12/31 07:30:07;;;;;;;6.40;2.60;;;5.00;99.90;;;;;;4961117;28;20038;-76
2023/12/31 07:32:33;;;;;;;6.68;2.50;;;5.00;99.90;;;;;;4969314;28;20031;-77
2023/12/31 07:34:58;;;;;;;2.53;1.30;;;5.10;99.90;;;;;;4970257;28;20081;-74
2023/12/31 07:37:24;;;;;;;3.35;1.10;;;5.30;99.90;;;;;;4962685;28;20041;-72
2023/12/31 07:39:49;;;;;;;1.55;1.25;;;5.50;99.90;;;;;;4964668;28;20464;-74
2023/12/31 07:42:15;;;;;;;2.25;1.23;;;6.00;99.90;;;;;;4965832;28;20110;-74
2023/12/31 07:44:41;;;;;;;1.85;1.50;;;6.30;99.90;;;;;;4970513;28;20027;-73
2023/12/31 07:47:06;;;;;;;3.30;1.35;;;6.50;99.90;;;;;;4963884;28;20074;-74
2023/12/31 07:49:33;;;;;;;2.15;1.50;;;6.80;99.90;;;;;;4963329;28;20491;-74
2023/12/31 07:51:59;;;;;;;1.88;1.13;;;6.90;99.90;;;;;;4968376;28;20464;-73
2023/12/31 07:54:25;;;;;;;1.48;1.30;;;7.10;99.90;;;;;;4952450;28;20031;-73
2023/12/31 07:56:51;;;;;;;3.58;1.60;;;7.20;99.90;;;;;;4965829;28;20054;-73
2023/12/31 07:59:17;;;;;;;2.50;1.58;;;7.30;99.90;;;;;;4969510;28;20473;-73
2023/12/31 08:01:43;;;;;;;2.00;1.45;;;7.40;99.90;;;;;;4970205;28;20435;-72
2023/12/31 08:04:08;;;;;;;1.17;1.08;;;7.50;99.90;;;;;;4968210;28;20034;-77
2023/12/31 08:06:34;;;;;;;1.67;1.13;;;7.60;99.90;;;;;;4968198;28;20066;-73
2023/12/31 08:09:00;;;;;;;2.13;1.25;;;7.60;99.90;;;;;;4968090;28;20811;-73
2023/12/31 08:11:26;;;;;;;1.95;1.20;;;7.50;99.90;;;;;;4965934;28;20031;-74
2023/12/31 08:13:51;;;;;;;1.75;1.00;;;7.60;99.90;;;;;;4969493;28;20031;-74
2023/12/31 08:16:19;;;;;;;2.88;1.10;;;7.70;99.90;;;;;;4972579;28;20058;-73
2023/12/31 08:18:44;;;;;;;1.00;0.88;;;7.70;99.90;;;;;;4962558;28;20145;-71
2023/12/31 08:21:10;;;;;;;1.98;1.10;;;7.80;99.90;;;;;;4961710;28;20031;-73
2023/12/31 08:23:36;;;;;;;1.98;1.00;;;7.90;99.90;;;;;;4964253;28;20030;-71
2023/12/31 08:26:03;;;;;;;1.42;1.33;;;7.90;99.90;;;;;;4961354;28;20027;-72
2023/12/31 08:28:29;;;;;;;2.15;1.17;;;7.90;99.90;;;;;;4958729;28;20038;-73
2023/12/31 08:30:55;;;;;;;1.23;1.13;;;7.90;99.90;;;;;;4966993;28;20030;-73
2023/12/31 08:33:22;;;;;;;2.63;1.45;;;8.00;99.90;;;;;;4965522;28;20015;-69
2023/12/31 08:35:48;;;;;;;2.58;1.25;;;8.00;99.90;;;;;;4962364;28;20055;-72
2023/12/31 08:38:14;;;;;;;2.05;1.33;;;8.00;99.90;;;;;;4972169;28;20043;-72
2023/12/31 08:40:39;;;;;;;1.80;1.50;;;8.10;99.90;;;;;;4962605;28;20039;-71
2023/12/31 08:43:05;;;;;;;1.73;1.40;;;8.20;99.90;;;;;;4968142;28;20106;-72
2023/12/31 08:45:32;;;;;;;3.33;1.50;;;8.20;99.90;;;;;;4969219;28;20046;-73
2023/12/31 08:47:58;;;;;;;3.92;1.90;;;8.20;99.90;;;;;;4970029;28;20683;-73
2023/12/31 08:50:24;;;;;;;2.55;1.95;;;8.20;99.90;;;;;;4973066;28;20026;-74
2023/12/31 08:52:50;;;;;;;3.97;1.48;;;8.20;99.90;;;;;;4971374;28;20038;-73
2023/12/31 08:55:16;;;;;;;1.98;1.70;;;8.20;99.90;;;;;;4972352;28;20050;-75
2023/12/31 08:57:44;;;;;;;3.40;1.67;;;8.20;99.90;;;;;;4961422;28;20043;-72
2023/12/31 09:00:11;;;;;;;3.25;1.52;;;8.20;99.90;;;;;;4962142;28;20027;-73
2023/12/31 09:02:36;;;;;;;1.73;1.27;;;8.20;99.90;;;;;;4969037;28;20498;-74
2023/12/31 09:05:02;;;;;;;5.15;2.97;;;8.30;99.90;;;;;;4969777;28;20026;-74
2023/12/31 09:07:28;;;;;;;5.53;3.15;;;8.40;99.90;;;;;;4969544;28;20476;-74
2023/12/31 09:09:53;;;;;;;5.40;2.72;;;8.40;99.90;;;;;;4970703;28;20027;-74
2023/12/31 09:12:20;;;;;;;3.88;2.70;;;8.30;99.90;;;;;;4967767;28;20023;-74
2023/12/31 09:14:45;;;;;;;4.60;2.50;;;8.20;99.90;;;;;;4962006;28;20042;-73
2023/12/31 09:17:11;;;;;;;5.53;2.92;;;8.00;99.90;;;;;;4968817;28;20043;-74
2023/12/31 09:19:38;;;;;;;4.32;2.55;;;8.00;99.90;;;;;;4968299;28;20106;-73
2023/12/31 09:22:04;;;;;;;3.75;2.50;;;7.90;99.90;;;;;;4966913;28;20190;-74
2023/12/31 09:24:31;;;;;;;2.75;2.17;;;7.90;99.90;;;;;;4969620;28;20102;-75
2023/12/31 09:26:57;;;;;;;3.13;1.73;;;7.90;99.90;;;;;;4970964;28;20615;-74
2023/12/31 09:29:23;;;;;;;2.83;1.55;;;8.00;99.90;;;;;;4962937;28;20023;-73
2023/12/31 09:31:49;;;;;;;4.55;2.58;;;8.10;99.90;;;;;;4964386;28;20034;-74
2023/12/31 09:34:15;;;;;;;4.60;2.55;;;8.30;99.90;;;;;;4968217;28;20353;-72
2023/12/31 09:36:40;;;;;;;8.10;3.72;;;8.30;99.90;;;;;;4967844;28;20037;-74
2023/12/31 09:39:06;;;;;;;6.00;3.75;;;8.40;99.90;;;;;;4969603;28;20038;-78
2023/12/31 09:41:33;;;;;;;6.80;3.90;;;8.40;99.90;;;;;;4959345;28;20054;-70
2023/12/31 09:44:00;;;;;;;7.72;4.65;;;8.20;99.90;;;;;;4967910;28;20171;-71
2023/12/31 09:46:31;;;;;;;7.10;4.45;;;8.10;99.90;;;;;;4966851;28;20057;-71
2023/12/31 09:48:57;;;;;;;8.55;4.50;;;8.00;99.90;;;;;;4955237;28;20035;-72
2023/12/31 09:51:23;;;;;;;8.35;4.22;;;7.90;99.90;;;;;;4969369;28;20085;-71
2023/12/31 09:53:53;;;;;;;6.32;4.65;;;7.90;99.90;;;;;;4953066;28;20436;-70
2023/12/31 09:56:21;;;;;;;5.63;4.20;;;7.90;99.90;;;;;;4970670;28;20041;-72
2023/12/31 09:58:50;;;;;;;8.57;4.60;;;8.00;99.90;;;;;;4969135;28;20437;-72
2023/12/31 10:01:16;;;;;;;8.30;5.05;;;8.00;99.90;;;;;;4960098;28;20023;-71
2023/12/31 10:03:44;;;;;;;7.85;4.55;;;8.00;99.90;;;;;;4938342;28;20098;-70
2023/12/31 10:06:10;;;;;;;9.55;5.57;;;8.00;99.90;;;;;;4968024;28;20031;-74
2023/12/31 10:08:38;;;;;;;10.10;6.03;;;8.10;99.90;;;;;;4958579;28;20066;-73
2023/12/31 10:11:04;;;;;;;9.02;5.63;;;8.10;99.90;;;;;;4967572;28;20054;-72
2023/12/31 10:13:30;;;;;;;7.28;4.53;;;8.20;99.90;;;;;;4969456;28;20468;-73
2023/12/31 10:15:56;;;;;;;8.02;4.90;;;8.20;99.90;;;;;;4958874;28;20050;-72
2023/12/31 10:18:25;;;;;;;5.50;3.80;;;8.30;99.90;;;;;;4964325;28;20038;-70
2023/12/31 10:20:52;;;;;;;8.15;4.30;;;8.30;99.90;;;;;;4960903;28;20034;-71
2023/12/31 10:23:18;;;;;;;7.68;3.78;;;8.30;99.90;;;;;;4966680;28;20038;-72
2023/12/31 10:25:44;;;;;;;6.88;4.13;;;8.20;99.90;;;;;;4958979;28;20037;-71
2023/12/31 10:28:10;;;;;;;3.33;2.30;;;8.20;99.90;;;;;;4965689;28;20041;-70
2023/12/31 10:30:41;;;;;;;5.90;2.42;;;8.20;99.90;;;;;;4972205;28;20030;-71
2023/12/31 10:33:08;;;;;;;3.50;2.03;;;8.40;99.90;;;;;;4961074;28;20031;-70
2023/12/31 10:35:34;;;;;;;3.30;1.92;;;;;;;;;;4964723;28;20500;-72
2023/12/31 10:38:04;;;;;;;2.20;1.90;;;;;;;;;;4956475;28;20110;-71
2023/12/31 10:40:30;;;;;;;5.22;2.28;;;9.10;99.90;;;;;;4964532;28;20027;-70
2023/12/31 10:42:56;;;;;;;5.65;2.13;;;9.40;99.90;;;;;;4969642;28;20368;-71
2023/12/31 10:45:22;;;;;;;2.50;1.73;;;9.50;99.90;;;;;;4971083;28;20035;-73
2023/12/31 10:47:53;;;;;;;2.78;1.90;;;;;;;;;;4971536;28;20031;-71
2023/12/31 10:50:23;;;;;;;2.78;1.90;;;;;;;;;;4968060;28;20038;-69
2023/12/31 10:52:51;;;;;;;4.43;2.20;;;;;;;;;;4964480;28;20023;-71
2023/12/31 10:55:17;;;;;;;2.78;2.00;;;10.00;99.90;;;;;;4966342;28;20027;-73
2023/12/31 10:57:43;;;;;;;3.60;2.30;;;10.10;99.90;;;;;;4975867;28;20050;-73
2023/12/31 11:00:11;;;;;;;4.65;2.15;;;10.10;99.90;;;;;;4984096;28;20579;-70
2023/12/31 11:02:37;;;;;;;2.92;2.00;;;10.20;99.90;;;;;;4980566;28;20118;-70
2023/12/31 11:05:07;;;;;;;3.70;2.55;;;10.30;99.90;;;;;;4989238;28;20054;-70
2023/12/31 11:07:34;;;;;;;;;;;10.40;99.90;;;;;;4975572;28;20046;-71
2023/12/31 11:10:00;;;;;;;5.53;2.85;;;10.50;99.90;;;;;;4976129;28;19901;-70
2023/12/31 11:12:27;;;;;;;5.10;2.42;;;10.50;99.90;;;;;;4974390;28;20027;-70
2023/12/31 11:15:07;;;;;;;4.25;3.10;;;10.60;99.90;;;;;;4968554;28;20039;-70
2023/12/31 11:17:55;;;;;;;5.78;3.30;;;10.60;99.90;;;;;;4970853;28;20054;-72
2023/12/31 11:21:14;;;;;;;4.40;2.60;;;10.60;99.90;;;;;;4966234;28;20118;-71
2023/12/31 11:24:04;;;;;;;4.13;3.30;;;10.60;99.90;;;;;;4935565;29;20050;-71
2023/12/31 11:26:30;;;;;;;3.72;2.70;;;10.60;99.90;;;;;;4967155;28;20070;-72
2023/12/31 11:28:56;;;;;;;3.05;2.60;;;10.60;99.90;;;;;;4966324;28;20109;-73
2023/12/31 11:31:21;;;;;;;3.25;2.25;;;10.50;99.90;;;;;;4965839;28;20042;-81
2023/12/31 11:33:49;;;;;;;3.90;2.28;;;10.50;99.90;;;;;;4971552;28;20030;-80
2023/12/31 11:36:16;;;;;;;3.08;2.40;;;10.50;99.90;;;;;;4973660;28;20070;-80
2023/12/31 11:38:59;;;;;;;4.18;2.90;;;10.50;99.90;;;;;;4974913;28;20043;-82
2023/12/31 11:41:26;;;;;;;5.32;3.00;;;10.50;99.90;;;;;;4968642;28;20113;-86
2023/12/31 11:43:52;;;;;;;3.70;3.28;;;10.40;99.90;;;;;;4969973;28;20026;-80
2023/12/31 11:46:42;;;;;;;7.00;3.53;;;10.20;99.90;;;;;;4966949;28;20058;-83
2023/12/31 11:49:10;;;;;;;6.07;3.47;;;10.10;99.90;;;;;;4970960;28;20110;-77
2023/12/31 11:51:52;;;;;;;5.35;3.40;;;9.90;99.90;;;;;;4965146;28;20026;-75
2023/12/31 11:54:39;;;;;;;2.90;1.95;;;9.70;99.90;;;;;;4964984;28;20027;-74
2023/12/31 11:57:08;;;;;;;2.53;1.58;;;9.50;99.90;;;;;;4966798;28;20458;-84
2023/12/31 11:59:35;;;;;;;1.98;1.50;;;9.20;99.90;;;;;;4967588;28;20031;-76
2023/12/31 12:02:02;;;;;;;2.22;1.42;;;8.80;99.90;;;;;;4963345;28;20030;-75
2023/12/31 12:04:29;;;;;;;1.52;1.42;;;8.50;99.90;;;;;;4962708;28;20135;-78
2023/12/31 12:06:55;;;;;;;2.85;1.45;;;8.20;99.90;;;;;;4964924;28;20097;-80
2023/12/31 12:09:26;;;;;;;1.98;1.13;;;8.00;99.90;;;;;;4966532;28;20035;-79
2023/12/31 12:11:52;;;;;;;2.50;1.50;;;7.70;99.90;;;;;;4961570;28;20030;-80
2023/12/31 12:14:18;;;;;;;1.98;1.25;;;7.70;99.90;;;;;;4966816;28;20037;-79
2023/12/31 12:16:44;;;;;;;2.20;1.50;;;7.50;99.90;;;;;;4966276;28;20125;-76
2023/12/31 12:19:10;;;;;;;1.33;1.23;;;7.40;99.90;;;;;;4967484;28;20041;-77
2023/12/31 12:21:37;;;;;;;1.55;1.20;;;7.40;99.90;;;;;;4965659;28;20117;-80
2023/12/31 12:24:06;;;;;;;3.13;1.20;;;7.30;99.90;;;;;;4968346;28;20019;-80
2023/12/31 12:26:31;;;;;;;1.92;0.90;;;7.20;99.90;;;;;;4970030;28;20460;-81
2023/12/31 12:28:58;;;;;;;1.52;0.90;;;7.10;99.90;;;;;;4937600;28;20066;-81
2023/12/31 12:31:24;;;;;;;3.53;1.10;;;7.10;99.90;;;;;;4965528;28;20064;-80
2023/12/31 12:33:54;;;;;;;1.25;0.93;;;7.00;99.90;;;;;;4967104;28;20030;-81
2023/12/31 12:36:20;;;;;;;2.30;1.02;;;7.00;99.90;;;;;;4976039;28;20023;-79
2023/12/31 12:38:48;;;;;;;2.58;1.50;;;6.90;99.90;;;;;;4973011;28;20063;-79
2023/12/31 12:41:23;;;;;;;3.13;1.17;;;6.90;99.90;;;;;;4963802;28;20086;-81
2023/12/31 12:44:06;;;;;;;1.73;0.98;;;6.80;99.90;;;;;;4967549;28;20062;-81
2023/12/31 12:46:33;;;;;;;1.52;1.15;;;6.80;99.90;;;;;;4976240;28;20031;-83
2023/12/31 12:48:59;;;;;;;3.00;1.55;;;6.80;99.90;;;;;;4965103;28;20023;-84
2023/12/31 12:51:26;;;;;;;2.15;1.70;;;6.80;99.90;;;;;;4965750;28;20111;-85
2023/12/31 12:53:55;;;;;;;3.78;1.98;;;6.80;99.90;;;;;;4962578;28;20126;-80